sensor_id;sensor_type;location;lat;lon;timestamp;P1;durP1;ratioP1;P2;durP2;ratioP2
19605;SDS011;9950;50.168;8.210;2024-03-06T00:00:50;24.48;;;8.15;;
19605;SDS011;9950;50.168;8.210;2024-03-06T00:03:16;31.27;;;9.05;;
19605;SDS011;9950;50.168;8.210;2024-03-06T00:05:43;19.85;;;8.77;;
19605;SDS011;9950;50.168;8.210;2024-03-06T00:08:10;31.65;;;9.00;;
19605;SDS011;9950;50.168;8.210;2024-03-06T00:10:40;28.85;;;10.60;;
19605;SDS011;9950;50.168;8.210;2024-03-06T00:13:07;28.33;;;9.15;;
19605;SDS011;9950;50.168;8.210;2024-03-06T00:15:34;36.40;;;10.00;;
19605;SDS011;9950;50.168;8.210;2024-03-06T00:18:01;29.70;;;8.82;;
19605;SDS011;9950;50.168;8.210;2024-03-06T00:20:30;34.38;;;9.05;;
19605;SDS011;9950;50.168;8.210;2024-03-06T00:22:57;38.85;;;8.43;;
19605;SDS011;9950;50.168;8.210;2024-03-06T00:25:25;43.38;;;10.23;;
19605;SDS011;9950;50.168;8.210;2024-03-06T00:27:54;55.47;;;8.75;;
19605;SDS011;9950;50.168;8.210;2024-03-06T00:30:21;38.92;;;9.70;;
19605;SDS011;9950;50.168;8.210;2024-03-06T00:32:48;27.98;;;8.60;;
19605;SDS011;9950;50.168;8.210;2024-03-06T00:35:15;41.47;;;8.52;;
19605;SDS011;9950;50.168;8.210;2024-03-06T00:37:42;41.15;;;8.18;;
19605;SDS011;9950;50.168;8.210;2024-03-06T00:40:10;43.20;;;8.35;;
19605;SDS011;9950;50.168;8.210;2024-03-06T00:42:38;50.80;;;8.80;;
19605;SDS011;9950;50.168;8.210;2024-03-06T00:45:08;46.33;;;8.18;;
19605;SDS011;9950;50.168;8.210;2024-03-06T00:47:35;64.95;;;8.20;;
19605;SDS011;9950;50.168;8.210;2024-03-06T00:50:02;49.92;;;7.88;;
19605;SDS011;9950;50.168;8.210;2024-03-06T00:52:31;37.08;;;7.38;;
19605;SDS011;9950;50.168;8.210;2024-03-06T00:54:58;28.80;;;6.50;;
19605;SDS011;9950;50.168;8.210;2024-03-06T00:57:25;26.10;;;6.45;;
19605;SDS011;9950;50.168;8.210;2024-03-06T00:59:52;18.83;;;5.47;;
19605;SDS011;9950;50.168;8.210;2024-03-06T01:02:21;23.17;;;6.00;;
19605;SDS011;9950;50.168;8.210;2024-03-06T01:04:48;11.05;;;5.38;;
19605;SDS011;9950;50.168;8.210;2024-03-06T01:07:15;30.65;;;6.20;;
19605;SDS011;9950;50.168;8.210;2024-03-06T01:09:42;23.30;;;7.03;;
19605;SDS011;9950;50.168;8.210;2024-03-06T01:12:09;25.27;;;7.40;;
19605;SDS011;9950;50.168;8.210;2024-03-06T01:14:36;24.52;;;7.60;;
19605;SDS011;9950;50.168;8.210;2024-03-06T01:17:04;18.70;;;7.05;;
19605;SDS011;9950;50.168;8.210;2024-03-06T01:19:32;11.02;;;6.45;;
19605;SDS011;9950;50.168;8.210;2024-03-06T01:22:00;12.85;;;6.28;;
19605;SDS011;9950;50.168;8.210;2024-03-06T01:24:27;8.77;;;5.40;;
19605;SDS011;9950;50.168;8.210;2024-03-06T01:26:54;11.05;;;5.93;;
19605;SDS011;9950;50.168;8.210;2024-03-06T01:29:21;9.88;;;5.97;;
19605;SDS011;9950;50.168;8.210;2024-03-06T01:31:48;13.23;;;6.18;;
19605;SDS011;9950;50.168;8.210;2024-03-06T01:34:15;11.15;;;5.93;;
19605;SDS011;9950;50.168;8.210;2024-03-06T01:36:43;11.20;;;5.78;;
19605;SDS011;9950;50.168;8.210;2024-03-06T01:39:11;12.90;;;6.53;;
19605;SDS011;9950;50.168;8.210;2024-03-06T01:41:44;35.00;;;8.95;;
19605;SDS011;9950;50.168;8.210;2024-03-06T01:44:11;118.25;;;11.55;;
19605;SDS011;9950;50.168;8.210;2024-03-06T01:46:38;32.28;;;8.15;;
19605;SDS011;9950;50.168;8.210;2024-03-06T01:49:05;16.75;;;7.35;;
19605;SDS011;9950;50.168;8.210;2024-03-06T01:51:32;31.40;;;7.72;;
19605;SDS011;9950;50.168;8.210;2024-03-06T01:54:01;28.08;;;7.97;;
19605;SDS011;9950;50.168;8.210;2024-03-06T01:56:29;19.90;;;8.57;;
19605;SDS011;9950;50.168;8.210;2024-03-06T01:58:56;14.45;;;7.50;;
19605;SDS011;9950;50.168;8.210;2024-03-06T02:01:24;13.20;;;6.95;;
19605;SDS011;9950;50.168;8.210;2024-03-06T02:03:51;22.13;;;8.38;;
19605;SDS011;9950;50.168;8.210;2024-03-06T02:06:18;29.20;;;7.40;;
19605;SDS011;9950;50.168;8.210;2024-03-06T02:08:46;12.30;;;6.32;;
19605;SDS011;9950;50.168;8.210;2024-03-06T02:11:14;18.70;;;7.10;;
19605;SDS011;9950;50.168;8.210;2024-03-06T02:13:42;12.48;;;6.55;;
19605;SDS011;9950;50.168;8.210;2024-03-06T02:16:09;11.40;;;6.72;;
19605;SDS011;9950;50.168;8.210;2024-03-06T02:18:36;11.95;;;5.78;;
19605;SDS011;9950;50.168;8.210;2024-03-06T02:21:06;11.90;;;5.63;;
19605;SDS011;9950;50.168;8.210;2024-03-06T02:23:33;11.93;;;5.43;;
19605;SDS011;9950;50.168;8.210;2024-03-06T02:26:00;11.27;;;5.40;;
19605;SDS011;9950;50.168;8.210;2024-03-06T02:28:27;14.30;;;6.15;;
19605;SDS011;9950;50.168;8.210;2024-03-06T02:30:55;12.75;;;6.97;;
19605;SDS011;9950;50.168;8.210;2024-03-06T02:33:22;10.20;;;5.93;;
19605;SDS011;9950;50.168;8.210;2024-03-06T02:35:49;11.88;;;6.72;;
19605;SDS011;9950;50.168;8.210;2024-03-06T02:38:18;9.93;;;6.00;;
19605;SDS011;9950;50.168;8.210;2024-03-06T02:40:45;9.30;;;5.78;;
19605;SDS011;9950;50.168;8.210;2024-03-06T02:43:14;12.43;;;6.57;;
19605;SDS011;9950;50.168;8.210;2024-03-06T02:45:41;11.48;;;5.95;;
19605;SDS011;9950;50.168;8.210;2024-03-06T02:48:08;9.05;;;5.50;;
19605;SDS011;9950;50.168;8.210;2024-03-06T02:50:35;9.93;;;6.00;;
19605;SDS011;9950;50.168;8.210;2024-03-06T02:53:02;10.98;;;6.18;;
19605;SDS011;9950;50.168;8.210;2024-03-06T02:55:31;13.63;;;6.38;;
19605;SDS011;9950;50.168;8.210;2024-03-06T02:58:00;10.73;;;5.75;;
19605;SDS011;9950;50.168;8.210;2024-03-06T03:00:28;11.43;;;5.97;;
19605;SDS011;9950;50.168;8.210;2024-03-06T03:02:56;9.90;;;5.82;;
19605;SDS011;9950;50.168;8.210;2024-03-06T03:05:24;10.48;;;5.57;;
19605;SDS011;9950;50.168;8.210;2024-03-06T03:07:51;11.50;;;6.28;;
19605;SDS011;9950;50.168;8.210;2024-03-06T03:10:18;11.00;;;5.75;;
19605;SDS011;9950;50.168;8.210;2024-03-06T03:12:47;13.40;;;5.90;;
19605;SDS011;9950;50.168;8.210;2024-03-06T03:15:14;9.85;;;5.45;;
19605;SDS011;9950;50.168;8.210;2024-03-06T03:17:41;9.00;;;5.38;;
19605;SDS011;9950;50.168;8.210;2024-03-06T03:20:09;10.68;;;5.97;;
19605;SDS011;9950;50.168;8.210;2024-03-06T03:22:36;11.45;;;5.85;;
19605;SDS011;9950;50.168;8.210;2024-03-06T03:25:03;10.90;;;5.38;;
19605;SDS011;9950;50.168;8.210;2024-03-06T03:27:32;12.15;;;6.47;;
19605;SDS011;9950;50.168;8.210;2024-03-06T03:30:00;14.88;;;6.55;;
19605;SDS011;9950;50.168;8.210;2024-03-06T03:32:28;18.67;;;7.22;;
19605;SDS011;9950;50.168;8.210;2024-03-06T03:34:55;15.38;;;6.93;;
19605;SDS011;9950;50.168;8.210;2024-03-06T03:37:22;18.70;;;7.03;;
19605;SDS011;9950;50.168;8.210;2024-03-06T03:39:49;18.33;;;7.50;;
19605;SDS011;9950;50.168;8.210;2024-03-06T03:42:16;10.93;;;5.72;;
19605;SDS011;9950;50.168;8.210;2024-03-06T03:44:44;11.77;;;6.20;;
19605;SDS011;9950;50.168;8.210;2024-03-06T03:47:12;14.57;;;7.15;;
19605;SDS011;9950;50.168;8.210;2024-03-06T03:49:39;20.42;;;6.75;;
19605;SDS011;9950;50.168;8.210;2024-03-06T03:52:07;16.25;;;7.25;;
19605;SDS011;9950;50.168;8.210;2024-03-06T03:54:34;18.85;;;6.68;;
19605;SDS011;9950;50.168;8.210;2024-03-06T03:57:01;18.25;;;7.40;;
19605;SDS011;9950;50.168;8.210;2024-03-06T03:59:28;18.75;;;6.53;;
19605;SDS011;9950;50.168;8.210;2024-03-06T04:01:55;12.95;;;6.55;;
19605;SDS011;9950;50.168;8.210;2024-03-06T04:04:24;13.65;;;6.20;;
19605;SDS011;9950;50.168;8.210;2024-03-06T04:06:51;23.05;;;6.95;;
19605;SDS011;9950;50.168;8.210;2024-03-06T04:09:18;15.43;;;7.72;;
19605;SDS011;9950;50.168;8.210;2024-03-06T04:11:45;13.02;;;6.75;;
19605;SDS011;9950;50.168;8.210;2024-03-06T04:14:13;13.40;;;6.22;;
19605;SDS011;9950;50.168;8.210;2024-03-06T04:16:40;15.13;;;7.43;;
19605;SDS011;9950;50.168;8.210;2024-03-06T04:19:07;14.30;;;7.68;;
19605;SDS011;9950;50.168;8.210;2024-03-06T04:21:35;14.70;;;7.20;;
19605;SDS011;9950;50.168;8.210;2024-03-06T04:24:07;12.80;;;5.80;;
19605;SDS011;9950;50.168;8.210;2024-03-06T04:26:34;11.73;;;6.03;;
19605;SDS011;9950;50.168;8.210;2024-03-06T04:29:01;14.93;;;6.68;;
19605;SDS011;9950;50.168;8.210;2024-03-06T04:31:28;14.57;;;7.03;;
19605;SDS011;9950;50.168;8.210;2024-03-06T04:33:56;14.93;;;7.57;;
19605;SDS011;9950;50.168;8.210;2024-03-06T04:36:23;14.82;;;6.07;;
19605;SDS011;9950;50.168;8.210;2024-03-06T04:38:51;11.05;;;5.55;;
19605;SDS011;9950;50.168;8.210;2024-03-06T04:41:18;10.55;;;5.03;;
19605;SDS011;9950;50.168;8.210;2024-03-06T04:43:46;8.88;;;4.82;;
19605;SDS011;9950;50.168;8.210;2024-03-06T04:46:15;7.93;;;4.70;;
19605;SDS011;9950;50.168;8.210;2024-03-06T04:48:42;10.73;;;5.10;;
19605;SDS011;9950;50.168;8.210;2024-03-06T04:51:11;12.25;;;5.97;;
19605;SDS011;9950;50.168;8.210;2024-03-06T04:53:39;15.32;;;6.10;;
19605;SDS011;9950;50.168;8.210;2024-03-06T04:56:08;14.88;;;6.72;;
19605;SDS011;9950;50.168;8.210;2024-03-06T04:58:35;11.70;;;6.25;;
19605;SDS011;9950;50.168;8.210;2024-03-06T05:01:03;13.93;;;6.00;;
19605;SDS011;9950;50.168;8.210;2024-03-06T05:03:30;11.05;;;5.63;;
19605;SDS011;9950;50.168;8.210;2024-03-06T05:05:57;10.60;;;5.55;;
19605;SDS011;9950;50.168;8.210;2024-03-06T05:08:24;13.10;;;5.57;;
19605;SDS011;9950;50.168;8.210;2024-03-06T05:10:51;12.73;;;6.05;;
19605;SDS011;9950;50.168;8.210;2024-03-06T05:13:19;11.63;;;6.32;;
19605;SDS011;9950;50.168;8.210;2024-03-06T05:15:47;14.23;;;5.63;;
19605;SDS011;9950;50.168;8.210;2024-03-06T05:18:14;12.25;;;5.78;;
19605;SDS011;9950;50.168;8.210;2024-03-06T05:20:41;11.23;;;5.45;;
19605;SDS011;9950;50.168;8.210;2024-03-06T05:23:08;12.25;;;5.45;;
19605;SDS011;9950;50.168;8.210;2024-03-06T05:25:35;9.45;;;5.07;;
19605;SDS011;9950;50.168;8.210;2024-03-06T05:28:03;10.82;;;5.00;;
19605;SDS011;9950;50.168;8.210;2024-03-06T05:30:32;10.07;;;5.55;;
19605;SDS011;9950;50.168;8.210;2024-03-06T05:32:59;9.52;;;4.75;;
19605;SDS011;9950;50.168;8.210;2024-03-06T05:35:26;11.65;;;5.15;;
19605;SDS011;9950;50.168;8.210;2024-03-06T05:37:54;11.00;;;5.15;;
19605;SDS011;9950;50.168;8.210;2024-03-06T05:40:22;8.50;;;5.22;;
19605;SDS011;9950;50.168;8.210;2024-03-06T05:42:49;9.70;;;5.35;;
19605;SDS011;9950;50.168;8.210;2024-03-06T05:45:16;11.00;;;4.60;;
19605;SDS011;9950;50.168;8.210;2024-03-06T05:47:44;10.77;;;5.07;;
19605;SDS011;9950;50.168;8.210;2024-03-06T05:50:12;9.98;;;4.72;;
19605;SDS011;9950;50.168;8.210;2024-03-06T05:52:40;10.48;;;5.15;;
19605;SDS011;9950;50.168;8.210;2024-03-06T05:55:08;9.35;;;4.75;;
19605;SDS011;9950;50.168;8.210;2024-03-06T05:57:35;11.45;;;5.05;;
19605;SDS011;9950;50.168;8.210;2024-03-06T06:00:02;12.20;;;5.03;;
19605;SDS011;9950;50.168;8.210;2024-03-06T06:02:35;8.02;;;4.70;;
19605;SDS011;9950;50.168;8.210;2024-03-06T06:05:05;12.07;;;5.20;;
19605;SDS011;9950;50.168;8.210;2024-03-06T06:07:32;9.98;;;5.07;;
19605;SDS011;9950;50.168;8.210;2024-03-06T06:09:59;9.98;;;4.78;;
19605;SDS011;9950;50.168;8.210;2024-03-06T06:12:26;9.35;;;4.82;;
19605;SDS011;9950;50.168;8.210;2024-03-06T06:14:53;8.88;;;4.40;;
19605;SDS011;9950;50.168;8.210;2024-03-06T06:17:20;10.93;;;5.05;;
19605;SDS011;9950;50.168;8.210;2024-03-06T06:19:47;9.57;;;5.40;;
19605;SDS011;9950;50.168;8.210;2024-03-06T06:22:16;11.60;;;5.47;;
19605;SDS011;9950;50.168;8.210;2024-03-06T06:24:43;16.00;;;5.97;;
19605;SDS011;9950;50.168;8.210;2024-03-06T06:27:11;9.60;;;5.00;;
19605;SDS011;9950;50.168;8.210;2024-03-06T06:29:38;10.10;;;5.25;;
19605;SDS011;9950;50.168;8.210;2024-03-06T06:32:06;9.68;;;5.35;;
19605;SDS011;9950;50.168;8.210;2024-03-06T06:34:33;10.32;;;4.93;;
19605;SDS011;9950;50.168;8.210;2024-03-06T06:37:01;9.68;;;4.65;;
19605;SDS011;9950;50.168;8.210;2024-03-06T06:39:29;9.07;;;5.13;;
19605;SDS011;9950;50.168;8.210;2024-03-06T06:41:59;11.18;;;5.43;;
19605;SDS011;9950;50.168;8.210;2024-03-06T06:44:26;12.75;;;6.32;;
19605;SDS011;9950;50.168;8.210;2024-03-06T06:46:53;13.90;;;6.18;;
19605;SDS011;9950;50.168;8.210;2024-03-06T06:49:21;11.15;;;6.25;;
19605;SDS011;9950;50.168;8.210;2024-03-06T06:51:48;11.43;;;6.13;;
19605;SDS011;9950;50.168;8.210;2024-03-06T06:54:16;10.45;;;5.53;;
19605;SDS011;9950;50.168;8.210;2024-03-06T06:56:44;10.95;;;5.40;;
19605;SDS011;9950;50.168;8.210;2024-03-06T06:59:11;11.30;;;4.97;;
19605;SDS011;9950;50.168;8.210;2024-03-06T07:01:39;11.95;;;6.07;;
19605;SDS011;9950;50.168;8.210;2024-03-06T07:04:06;10.45;;;5.78;;
19605;SDS011;9950;50.168;8.210;2024-03-06T07:06:34;9.95;;;5.22;;
19605;SDS011;9950;50.168;8.210;2024-03-06T07:09:01;11.10;;;5.28;;
19605;SDS011;9950;50.168;8.210;2024-03-06T07:11:30;11.95;;;5.45;;
19605;SDS011;9950;50.168;8.210;2024-03-06T07:13:58;16.17;;;4.90;;
19605;SDS011;9950;50.168;8.210;2024-03-06T07:16:25;35.55;;;6.50;;
19605;SDS011;9950;50.168;8.210;2024-03-06T07:18:52;28.63;;;6.40;;
19605;SDS011;9950;50.168;8.210;2024-03-06T07:21:19;37.00;;;7.40;;
19605;SDS011;9950;50.168;8.210;2024-03-06T07:23:47;67.40;;;8.98;;
19605;SDS011;9950;50.168;8.210;2024-03-06T07:26:14;63.08;;;9.20;;
19605;SDS011;9950;50.168;8.210;2024-03-06T07:28:41;63.15;;;10.45;;
19605;SDS011;9950;50.168;8.210;2024-03-06T07:31:09;61.85;;;11.50;;
19605;SDS011;9950;50.168;8.210;2024-03-06T07:33:36;63.83;;;11.75;;
19605;SDS011;9950;50.168;8.210;2024-03-06T07:36:04;48.10;;;12.25;;
19605;SDS011;9950;50.168;8.210;2024-03-06T07:38:31;45.13;;;10.85;;
19605;SDS011;9950;50.168;8.210;2024-03-06T07:40:58;34.97;;;10.60;;
19605;SDS011;9950;50.168;8.210;2024-03-06T07:43:25;30.23;;;11.27;;
19605;SDS011;9950;50.168;8.210;2024-03-06T07:45:52;21.83;;;11.13;;
19605;SDS011;9950;50.168;8.210;2024-03-06T07:48:23;21.65;;;10.48;;
19605;SDS011;9950;50.168;8.210;2024-03-06T07:50:51;26.45;;;10.68;;
19605;SDS011;9950;50.168;8.210;2024-03-06T07:53:18;26.85;;;11.45;;
19605;SDS011;9950;50.168;8.210;2024-03-06T07:55:45;21.75;;;10.40;;
19605;SDS011;9950;50.168;8.210;2024-03-06T07:58:12;28.20;;;11.82;;
19605;SDS011;9950;50.168;8.210;2024-03-06T08:00:41;26.25;;;11.18;;
19605;SDS011;9950;50.168;8.210;2024-03-06T08:03:08;20.45;;;10.82;;
19605;SDS011;9950;50.168;8.210;2024-03-06T08:05:38;24.70;;;11.00;;
19605;SDS011;9950;50.168;8.210;2024-03-06T08:08:06;28.30;;;11.80;;
19605;SDS011;9950;50.168;8.210;2024-03-06T08:10:34;33.38;;;12.40;;
19605;SDS011;9950;50.168;8.210;2024-03-06T08:13:01;45.20;;;13.32;;
19605;SDS011;9950;50.168;8.210;2024-03-06T08:15:28;41.25;;;13.80;;
19605;SDS011;9950;50.168;8.210;2024-03-06T08:17:55;45.53;;;13.63;;
19605;SDS011;9950;50.168;8.210;2024-03-06T08:20:22;54.20;;;15.45;;
19605;SDS011;9950;50.168;8.210;2024-03-06T08:22:51;44.67;;;12.85;;
19605;SDS011;9950;50.168;8.210;2024-03-06T08:25:18;58.08;;;12.20;;
19605;SDS011;9950;50.168;8.210;2024-03-06T08:27:45;46.75;;;14.13;;
19605;SDS011;9950;50.168;8.210;2024-03-06T08:30:12;51.67;;;16.02;;
19605;SDS011;9950;50.168;8.210;2024-03-06T08:32:39;50.70;;;13.25;;
19605;SDS011;9950;50.168;8.210;2024-03-06T08:35:09;44.85;;;13.43;;
19605;SDS011;9950;50.168;8.210;2024-03-06T08:37:36;55.25;;;15.38;;
19605;SDS011;9950;50.168;8.210;2024-03-06T08:40:06;47.40;;;15.50;;
19605;SDS011;9950;50.168;8.210;2024-03-06T08:42:35;76.10;;;16.30;;
19605;SDS011;9950;50.168;8.210;2024-03-06T08:45:02;60.55;;;17.00;;
19605;SDS011;9950;50.168;8.210;2024-03-06T08:47:30;55.58;;;16.55;;
19605;SDS011;9950;50.168;8.210;2024-03-06T08:49:57;63.92;;;15.82;;
19605;SDS011;9950;50.168;8.210;2024-03-06T08:52:24;55.40;;;16.73;;
19605;SDS011;9950;50.168;8.210;2024-03-06T08:54:51;62.60;;;16.73;;
19605;SDS011;9950;50.168;8.210;2024-03-06T08:57:20;40.22;;;17.33;;
19605;SDS011;9950;50.168;8.210;2024-03-06T08:59:47;37.80;;;15.80;;
19605;SDS011;9950;50.168;8.210;2024-03-06T09:02:15;39.58;;;17.42;;
19605;SDS011;9950;50.168;8.210;2024-03-06T09:04:42;33.08;;;16.02;;
19605;SDS011;9950;50.168;8.210;2024-03-06T09:07:10;32.25;;;15.48;;
19605;SDS011;9950;50.168;8.210;2024-03-06T09:09:37;31.73;;;15.50;;
19605;SDS011;9950;50.168;8.210;2024-03-06T09:12:04;26.90;;;13.30;;
19605;SDS011;9950;50.168;8.210;2024-03-06T09:14:33;29.58;;;14.32;;
19605;SDS011;9950;50.168;8.210;2024-03-06T09:17:00;29.88;;;14.68;;
19605;SDS011;9950;50.168;8.210;2024-03-06T09:19:27;32.72;;;16.95;;
19605;SDS011;9950;50.168;8.210;2024-03-06T09:21:55;31.95;;;16.48;;
19605;SDS011;9950;50.168;8.210;2024-03-06T09:24:22;34.10;;;17.77;;
19605;SDS011;9950;50.168;8.210;2024-03-06T09:26:50;35.83;;;17.50;;
19605;SDS011;9950;50.168;8.210;2024-03-06T09:29:17;36.33;;;16.98;;
19605;SDS011;9950;50.168;8.210;2024-03-06T09:31:45;38.72;;;19.42;;
19605;SDS011;9950;50.168;8.210;2024-03-06T09:34:13;34.40;;;16.48;;
19605;SDS011;9950;50.168;8.210;2024-03-06T09:36:41;33.67;;;16.88;;
19605;SDS011;9950;50.168;8.210;2024-03-06T09:39:09;31.52;;;17.05;;
19605;SDS011;9950;50.168;8.210;2024-03-06T09:41:37;30.63;;;16.02;;
19605;SDS011;9950;50.168;8.210;2024-03-06T09:44:06;36.75;;;18.10;;
19605;SDS011;9950;50.168;8.210;2024-03-06T09:46:33;32.35;;;17.83;;
19605;SDS011;9950;50.168;8.210;2024-03-06T09:49:03;35.20;;;17.45;;
19605;SDS011;9950;50.168;8.210;2024-03-06T09:51:30;35.67;;;16.75;;
19605;SDS011;9950;50.168;8.210;2024-03-06T09:53:57;30.75;;;16.48;;
19605;SDS011;9950;50.168;8.210;2024-03-06T09:56:25;31.17;;;16.75;;
19605;SDS011;9950;50.168;8.210;2024-03-06T09:58:52;33.92;;;16.77;;
19605;SDS011;9950;50.168;8.210;2024-03-06T10:01:19;32.85;;;15.80;;
19605;SDS011;9950;50.168;8.210;2024-03-06T10:03:47;28.10;;;15.45;;
19605;SDS011;9950;50.168;8.210;2024-03-06T10:06:17;28.83;;;16.20;;
19605;SDS011;9950;50.168;8.210;2024-03-06T10:08:44;28.27;;;15.02;;
19605;SDS011;9950;50.168;8.210;2024-03-06T10:11:13;26.88;;;15.02;;
19605;SDS011;9950;50.168;8.210;2024-03-06T10:13:40;26.27;;;14.77;;
19605;SDS011;9950;50.168;8.210;2024-03-06T10:16:07;26.98;;;14.32;;
19605;SDS011;9950;50.168;8.210;2024-03-06T10:18:35;24.88;;;13.98;;
19605;SDS011;9950;50.168;8.210;2024-03-06T10:21:04;24.30;;;13.48;;
19605;SDS011;9950;50.168;8.210;2024-03-06T10:23:33;29.10;;;14.30;;
19605;SDS011;9950;50.168;8.210;2024-03-06T10:26:02;22.73;;;14.10;;
19605;SDS011;9950;50.168;8.210;2024-03-06T10:28:29;28.77;;;15.25;;
19605;SDS011;9950;50.168;8.210;2024-03-06T10:31:02;24.58;;;13.95;;
19605;SDS011;9950;50.168;8.210;2024-03-06T10:33:31;24.73;;;14.00;;
19605;SDS011;9950;50.168;8.210;2024-03-06T10:35:58;20.80;;;12.93;;
19605;SDS011;9950;50.168;8.210;2024-03-06T10:38:25;23.92;;;12.85;;
19605;SDS011;9950;50.168;8.210;2024-03-06T10:40:55;24.10;;;13.40;;
19605;SDS011;9950;50.168;8.210;2024-03-06T10:43:23;22.42;;;12.85;;
19605;SDS011;9950;50.168;8.210;2024-03-06T10:45:51;22.85;;;13.52;;
19605;SDS011;9950;50.168;8.210;2024-03-06T10:48:21;22.00;;;11.55;;
19605;SDS011;9950;50.168;8.210;2024-03-06T10:50:49;19.80;;;11.63;;
19605;SDS011;9950;50.168;8.210;2024-03-06T10:53:16;17.40;;;10.55;;
19605;SDS011;9950;50.168;8.210;2024-03-06T10:55:44;20.60;;;11.18;;
19605;SDS011;9950;50.168;8.210;2024-03-06T10:58:13;17.92;;;11.00;;
19605;SDS011;9950;50.168;8.210;2024-03-06T11:00:41;16.48;;;10.45;;
19605;SDS011;9950;50.168;8.210;2024-03-06T11:03:09;17.50;;;11.00;;
19605;SDS011;9950;50.168;8.210;2024-03-06T11:05:38;17.30;;;10.95;;
19605;SDS011;9950;50.168;8.210;2024-03-06T11:08:05;19.65;;;11.35;;
19605;SDS011;9950;50.168;8.210;2024-03-06T11:10:34;17.73;;;11.05;;
19605;SDS011;9950;50.168;8.210;2024-03-06T11:13:02;16.30;;;10.52;;
19605;SDS011;9950;50.168;8.210;2024-03-06T11:15:31;16.48;;;10.25;;
19605;SDS011;9950;50.168;8.210;2024-03-06T11:18:03;19.05;;;10.23;;
19605;SDS011;9950;50.168;8.210;2024-03-06T11:20:46;18.27;;;10.32;;
19605;SDS011;9950;50.168;8.210;2024-03-06T11:23:13;16.90;;;9.90;;
19605;SDS011;9950;50.168;8.210;2024-03-06T11:25:57;15.15;;;10.10;;
19605;SDS011;9950;50.168;8.210;2024-03-06T11:28:23;18.10;;;9.93;;
19605;SDS011;9950;50.168;8.210;2024-03-06T11:30:56;14.93;;;9.20;;
19605;SDS011;9950;50.168;8.210;2024-03-06T11:33:28;16.05;;;8.65;;
19605;SDS011;9950;50.168;8.210;2024-03-06T11:36:14;16.48;;;9.48;;
19605;SDS011;9950;50.168;8.210;2024-03-06T11:38:42;13.88;;;9.05;;
19605;SDS011;9950;50.168;8.210;2024-03-06T11:41:10;12.25;;;8.32;;
19605;SDS011;9950;50.168;8.210;2024-03-06T11:43:41;15.23;;;9.52;;
19605;SDS011;9950;50.168;8.210;2024-03-06T11:46:10;14.15;;;8.68;;
19605;SDS011;9950;50.168;8.210;2024-03-06T11:48:38;14.30;;;8.85;;
19605;SDS011;9950;50.168;8.210;2024-03-06T11:51:06;15.57;;;8.40;;
19605;SDS011;9950;50.168;8.210;2024-03-06T11:53:33;13.63;;;8.10;;
19605;SDS011;9950;50.168;8.210;2024-03-06T11:56:01;16.00;;;9.02;;
19605;SDS011;9950;50.168;8.210;2024-03-06T11:58:29;15.35;;;9.18;;
19605;SDS011;9950;50.168;8.210;2024-03-06T12:00:56;12.50;;;8.52;;
19605;SDS011;9950;50.168;8.210;2024-03-06T12:03:25;14.13;;;7.50;;
19605;SDS011;9950;50.168;8.210;2024-03-06T12:05:52;13.52;;;8.85;;
19605;SDS011;9950;50.168;8.210;2024-03-06T12:08:19;13.80;;;8.45;;
19605;SDS011;9950;50.168;8.210;2024-03-06T12:10:47;15.63;;;8.60;;
19605;SDS011;9950;50.168;8.210;2024-03-06T12:13:14;13.10;;;8.27;;
19605;SDS011;9950;50.168;8.210;2024-03-06T12:15:42;13.38;;;8.35;;
19605;SDS011;9950;50.168;8.210;2024-03-06T12:18:10;12.07;;;7.78;;
19605;SDS011;9950;50.168;8.210;2024-03-06T12:20:41;10.93;;;7.75;;
19605;SDS011;9950;50.168;8.210;2024-03-06T12:23:18;12.30;;;8.05;;
19605;SDS011;9950;50.168;8.210;2024-03-06T12:25:47;12.40;;;7.60;;
19605;SDS011;9950;50.168;8.210;2024-03-06T12:28:14;11.35;;;6.80;;
19605;SDS011;9950;50.168;8.210;2024-03-06T12:30:43;11.40;;;7.05;;
19605;SDS011;9950;50.168;8.210;2024-03-06T12:33:11;12.35;;;8.52;;
19605;SDS011;9950;50.168;8.210;2024-03-06T12:35:44;11.98;;;7.80;;
19605;SDS011;9950;50.168;8.210;2024-03-06T12:38:13;15.50;;;8.35;;
19605;SDS011;9950;50.168;8.210;2024-03-06T12:40:41;13.20;;;8.07;;
19605;SDS011;9950;50.168;8.210;2024-03-06T12:43:08;13.80;;;8.25;;
19605;SDS011;9950;50.168;8.210;2024-03-06T12:45:36;16.00;;;9.40;;
19605;SDS011;9950;50.168;8.210;2024-03-06T12:48:04;12.65;;;8.38;;
19605;SDS011;9950;50.168;8.210;2024-03-06T12:50:32;14.45;;;8.77;;
19605;SDS011;9950;50.168;8.210;2024-03-06T12:53:00;13.25;;;9.13;;
19605;SDS011;9950;50.168;8.210;2024-03-06T12:55:29;13.48;;;8.52;;
19605;SDS011;9950;50.168;8.210;2024-03-06T12:57:57;13.30;;;7.70;;
19605;SDS011;9950;50.168;8.210;2024-03-06T13:00:24;12.45;;;7.93;;
19605;SDS011;9950;50.168;8.210;2024-03-06T13:02:52;14.32;;;8.75;;
19605;SDS011;9950;50.168;8.210;2024-03-06T13:05:19;16.45;;;9.45;;
19605;SDS011;9950;50.168;8.210;2024-03-06T13:07:46;13.77;;;8.77;;
19605;SDS011;9950;50.168;8.210;2024-03-06T13:10:15;15.45;;;9.30;;
19605;SDS011;9950;50.168;8.210;2024-03-06T13:12:42;13.73;;;8.40;;
19605;SDS011;9950;50.168;8.210;2024-03-06T13:15:10;14.55;;;8.90;;
19605;SDS011;9950;50.168;8.210;2024-03-06T13:17:37;16.08;;;9.55;;
19605;SDS011;9950;50.168;8.210;2024-03-06T13:20:05;16.55;;;9.88;;
19605;SDS011;9950;50.168;8.210;2024-03-06T13:22:34;15.63;;;9.52;;
19605;SDS011;9950;50.168;8.210;2024-03-06T13:25:01;15.20;;;9.63;;
19605;SDS011;9950;50.168;8.210;2024-03-06T13:27:30;16.45;;;9.88;;
19605;SDS011;9950;50.168;8.210;2024-03-06T13:29:57;18.33;;;10.27;;
19605;SDS011;9950;50.168;8.210;2024-03-06T13:32:25;18.10;;;10.35;;
19605;SDS011;9950;50.168;8.210;2024-03-06T13:34:53;16.75;;;10.50;;
19605;SDS011;9950;50.168;8.210;2024-03-06T13:37:21;19.33;;;11.48;;
19605;SDS011;9950;50.168;8.210;2024-03-06T13:39:48;18.38;;;10.75;;
19605;SDS011;9950;50.168;8.210;2024-03-06T13:42:17;18.77;;;11.75;;
19605;SDS011;9950;50.168;8.210;2024-03-06T13:44:46;18.73;;;11.05;;
19605;SDS011;9950;50.168;8.210;2024-03-06T13:47:14;17.35;;;10.63;;
19605;SDS011;9950;50.168;8.210;2024-03-06T13:49:42;21.02;;;11.18;;
19605;SDS011;9950;50.168;8.210;2024-03-06T13:52:10;16.48;;;10.35;;
19605;SDS011;9950;50.168;8.210;2024-03-06T13:54:38;19.50;;;11.38;;
19605;SDS011;9950;50.168;8.210;2024-03-06T13:57:06;18.27;;;11.25;;
19605;SDS011;9950;50.168;8.210;2024-03-06T13:59:34;16.55;;;10.13;;
19605;SDS011;9950;50.168;8.210;2024-03-06T14:02:04;18.58;;;10.43;;
19605;SDS011;9950;50.168;8.210;2024-03-06T14:04:31;16.10;;;10.07;;
19605;SDS011;9950;50.168;8.210;2024-03-06T14:06:59;17.88;;;10.52;;
19605;SDS011;9950;50.168;8.210;2024-03-06T14:09:26;15.02;;;9.35;;
19605;SDS011;9950;50.168;8.210;2024-03-06T14:11:55;16.15;;;9.32;;
19605;SDS011;9950;50.168;8.210;2024-03-06T14:14:22;17.50;;;9.13;;
19605;SDS011;9950;50.168;8.210;2024-03-06T14:16:49;12.85;;;8.02;;
19605;SDS011;9950;50.168;8.210;2024-03-06T14:19:18;13.45;;;8.00;;
19605;SDS011;9950;50.168;8.210;2024-03-06T14:21:46;13.25;;;8.20;;
19605;SDS011;9950;50.168;8.210;2024-03-06T14:24:14;11.88;;;7.40;;
19605;SDS011;9950;50.168;8.210;2024-03-06T14:26:42;14.00;;;8.18;;
19605;SDS011;9950;50.168;8.210;2024-03-06T14:29:09;15.52;;;8.93;;
19605;SDS011;9950;50.168;8.210;2024-03-06T14:31:36;14.02;;;8.80;;
19605;SDS011;9950;50.168;8.210;2024-03-06T14:34:04;14.30;;;8.68;;
19605;SDS011;9950;50.168;8.210;2024-03-06T14:36:33;13.38;;;8.32;;
19605;SDS011;9950;50.168;8.210;2024-03-06T14:39:00;11.38;;;7.25;;
19605;SDS011;9950;50.168;8.210;2024-03-06T14:41:28;13.93;;;8.57;;
19605;SDS011;9950;50.168;8.210;2024-03-06T14:43:55;14.55;;;8.60;;
19605;SDS011;9950;50.168;8.210;2024-03-06T14:46:22;12.55;;;8.05;;
19605;SDS011;9950;50.168;8.210;2024-03-06T14:48:50;13.70;;;8.18;;